sensor_id;sensor_type;location;lat;lon;timestamp;pressure;altitude;pressure_sealevel;temperature;humidity
29239;BME280;16267;48.194;11.546;2022-11-15T00:00:52;95924.56;;;6.13;87.24
29239;BME280;16267;48.194;11.546;2022-11-15T00:03:22;95918.81;;;6.11;87.18
29239;BME280;16267;48.194;11.546;2022-11-15T00:05:48;95914.63;;;6.10;87.29
29239;BME280;16267;48.194;11.546;2022-11-15T00:08:14;95918.06;;;6.07;86.66
29239;BME280;16267;48.194;11.546;2022-11-15T00:10:41;95912.69;;;6.03;86.22
29239;BME280;16267;48.194;11.546;2022-11-15T00:13:12;95910.75;;;6.00;86.75
29239;BME280;16267;48.194;11.546;2022-11-15T00:15:40;95918.00;;;6.00;87.39
29239;BME280;16267;48.194;11.546;2022-11-15T00:18:14;95920.25;;;5.98;87.34
29239;BME280;16267;48.194;11.546;2022-11-15T00:20:40;95918.75;;;5.97;87.16
29239;BME280;16267;48.194;11.546;2022-11-15T00:23:06;95914.56;;;5.96;87.35
29239;BME280;16267;48.194;11.546;2022-11-15T00:25:32;95911.50;;;5.94;87.17
29239;BME280;16267;48.194;11.546;2022-11-15T00:27:59;95907.25;;;5.93;87.15
29239;BME280;16267;48.194;11.546;2022-11-15T00:30:27;95909.53;;;5.91;87.27
29239;BME280;16267;48.194;11.546;2022-11-15T00:32:53;95906.84;;;5.87;86.54
29239;BME280;16267;48.194;11.546;2022-11-15T00:35:19;95906.06;;;5.87;86.93
29239;BME280;16267;48.194;11.546;2022-11-15T00:37:45;95906.81;;;5.84;86.77
29239;BME280;16267;48.194;11.546;2022-11-15T00:40:13;95905.66;;;5.81;86.09
29239;BME280;16267;48.194;11.546;2022-11-15T00:42:40;95905.25;;;5.79;86.25
29239;BME280;16267;48.194;11.546;2022-11-15T00:45:06;95902.97;;;5.77;86.52
29239;BME280;16267;48.194;11.546;2022-11-15T00:47:32;95902.22;;;5.77;86.63
29239;BME280;16267;48.194;11.546;2022-11-15T00:49:58;95897.25;;;5.75;86.78
29239;BME280;16267;48.194;11.546;2022-11-15T00:52:24;95891.53;;;5.73;87.00
29239;BME280;16267;48.194;11.546;2022-11-15T00:54:50;95888.50;;;5.71;86.98
29239;BME280;16267;48.194;11.546;2022-11-15T00:57:16;95885.81;;;5.71;87.52
29239;BME280;16267;48.194;11.546;2022-11-15T00:59:41;95878.94;;;5.70;87.37
29239;BME280;16267;48.194;11.546;2022-11-15T01:02:07;95875.91;;;5.68;86.90
29239;BME280;16267;48.194;11.546;2022-11-15T01:04:33;95870.19;;;5.66;86.74
29239;BME280;16267;48.194;11.546;2022-11-15T01:06:58;95869.44;;;5.66;87.16
29239;BME280;16267;48.194;11.546;2022-11-15T01:09:24;95866.38;;;5.64;87.58
29239;BME280;16267;48.194;11.546;2022-11-15T01:11:50;95859.53;;;5.63;87.99
29239;BME280;16267;48.194;11.546;2022-11-15T01:14:16;95858.75;;;5.62;88.05
29239;BME280;16267;48.194;11.546;2022-11-15T01:16:41;95860.63;;;5.62;88.19
29239;BME280;16267;48.194;11.546;2022-11-15T01:19:07;95864.06;;;5.62;88.66
29239;BME280;16267;48.194;11.546;2022-11-15T01:21:33;95852.25;;;5.59;88.77
29239;BME280;16267;48.194;11.546;2022-11-15T01:23:58;95853.41;;;5.58;88.88
29239;BME280;16267;48.194;11.546;2022-11-15T01:26:24;95849.22;;;5.57;89.18
29239;BME280;16267;48.194;11.546;2022-11-15T01:28:51;95856.41;;;5.57;88.93
29239;BME280;16267;48.194;11.546;2022-11-15T01:31:20;95846.16;;;5.55;89.68
29239;BME280;16267;48.194;11.546;2022-11-15T01:33:47;95843.50;;;5.55;89.47
29239;BME280;16267;48.194;11.546;2022-11-15T01:36:17;95841.59;;;5.56;89.52
29239;BME280;16267;48.194;11.546;2022-11-15T01:38:43;95840.06;;;5.55;89.80
29239;BME280;16267;48.194;11.546;2022-11-15T01:41:23;95836.25;;;5.56;90.01
29239;BME280;16267;48.194;11.546;2022-11-15T01:43:53;95833.59;;;5.56;89.82
29239;BME280;16267;48.194;11.546;2022-11-15T01:46:30;95838.16;;;5.55;90.08
29239;BME280;16267;48.194;11.546;2022-11-15T01:49:04;95841.59;;;5.56;89.80
29239;BME280;16267;48.194;11.546;2022-11-15T01:51:32;95837.41;;;5.55;89.57
29239;BME280;16267;48.194;11.546;2022-11-15T01:54:10;95835.50;;;5.55;89.26
29239;BME280;16267;48.194;11.546;2022-11-15T01:56:46;95826.34;;;5.53;88.57
29239;BME280;16267;48.194;11.546;2022-11-15T01:59:14;95816.06;;;5.51;88.42
29239;BME280;16267;48.194;11.546;2022-11-15T05:01:13;95711.88;;;4.39;86.32
29239;BME280;16267;48.194;11.546;2022-11-15T05:03:44;95708.03;;;4.36;85.22
29239;BME280;16267;48.194;11.546;2022-11-15T05:06:28;95700.03;;;4.33;84.87
29239;BME280;16267;48.194;11.546;2022-11-15T05:08:55;95703.81;;;4.32;85.62
29239;BME280;16267;48.194;11.546;2022-11-15T05:11:22;95698.13;;;4.30;85.70
29239;BME280;16267;48.194;11.546;2022-11-15T05:13:48;95693.16;;;4.28;85.67
29239;BME280;16267;48.194;11.546;2022-11-15T05:16:14;95687.09;;;4.28;85.99
29239;BME280;16267;48.194;11.546;2022-11-15T05:18:40;95696.16;;;4.27;86.55
29239;BME280;16267;48.194;11.546;2022-11-15T05:21:11;95690.06;;;4.22;85.31
29239;BME280;16267;48.194;11.546;2022-11-15T05:23:38;95688.56;;;4.21;86.01
29239;BME280;16267;48.194;11.546;2022-11-15T05:26:06;95685.13;;;4.21;85.55
29239;BME280;16267;48.194;11.546;2022-11-15T05:28:33;95675.97;;;4.18;85.73
29239;BME280;16267;48.194;11.546;2022-11-15T05:31:11;95671.06;;;4.17;85.61
29239;BME280;16267;48.194;11.546;2022-11-15T05:33:41;95670.28;;;4.16;86.06
29239;BME280;16267;48.194;11.546;2022-11-15T05:36:14;95666.09;;;4.15;86.35
29239;BME280;16267;48.194;11.546;2022-11-15T05:38:44;95660.78;;;4.15;86.46
29239;BME280;16267;48.194;11.546;2022-11-15T05:41:11;95658.13;;;4.15;86.56
29239;BME280;16267;48.194;11.546;2022-11-15T05:43:39;95660.03;;;4.15;86.61
29239;BME280;16267;48.194;11.546;2022-11-15T05:46:05;95663.06;;;4.13;86.43
29239;BME280;16267;48.194;11.546;2022-11-15T05:48:34;95666.06;;;4.12;85.77
29239;BME280;16267;48.194;11.546;2022-11-15T05:51:01;95665.31;;;4.11;85.97
29239;BME280;16267;48.194;11.546;2022-11-15T05:53:28;95665.66;;;4.10;85.95
29239;BME280;16267;48.194;11.546;2022-11-15T05:55:53;95669.44;;;4.09;85.83
29239;BME280;16267;48.194;11.546;2022-11-15T05:58:20;95672.09;;;4.05;85.30
29239;BME280;16267;48.194;11.546;2022-11-15T06:00:46;95659.16;;;4.03;85.25
29239;BME280;16267;48.194;11.546;2022-11-15T06:03:12;95657.63;;;4.02;85.52
29239;BME280;16267;48.194;11.546;2022-11-15T06:05:40;95648.91;;;4.02;85.68
29239;BME280;16267;48.194;11.546;2022-11-15T06:08:05;95650.41;;;3.99;85.52
29239;BME280;16267;48.194;11.546;2022-11-15T06:10:32;95648.84;;;3.98;85.30
29239;BME280;16267;48.194;11.546;2022-11-15T06:13:00;95651.13;;;3.96;85.18
29239;BME280;16267;48.194;11.546;2022-11-15T06:15:26;95648.47;;;3.96;86.14
29239;BME280;16267;48.194;11.546;2022-11-15T06:17:52;95647.69;;;3.96;86.14
29239;BME280;16267;48.194;11.546;2022-11-15T06:20:18;95646.94;;;3.95;86.30
29239;BME280;16267;48.194;11.546;2022-11-15T06:22:43;95647.31;;;3.94;86.01
29239;BME280;16267;48.194;11.546;2022-11-15T06:25:09;95648.44;;;3.93;85.27
29239;BME280;16267;48.194;11.546;2022-11-15T06:27:35;95640.09;;;3.91;85.62
29239;BME280;16267;48.194;11.546;2022-11-15T06:30:01;95641.19;;;3.90;85.81
29239;BME280;16267;48.194;11.546;2022-11-15T06:32:29;95641.56;;;3.88;85.82
29239;BME280;16267;48.194;11.546;2022-11-15T06:34:55;95638.91;;;3.88;85.65
29239;BME280;16267;48.194;11.546;2022-11-15T06:37:21;95650.66;;;3.87;85.94
29239;BME280;16267;48.194;11.546;2022-11-15T06:39:47;95653.69;;;3.86;85.56
29239;BME280;16267;48.194;11.546;2022-11-15T06:42:12;95651.38;;;3.84;85.64
29239;BME280;16267;48.194;11.546;2022-11-15T06:44:38;95655.94;;;3.84;85.95
29239;BME280;16267;48.194;11.546;2022-11-15T06:47:04;95656.69;;;3.84;86.27
29239;BME280;16267;48.194;11.546;2022-11-15T06:49:29;95650.63;;;3.84;86.34
29239;BME280;16267;48.194;11.546;2022-11-15T06:51:55;95653.28;;;3.84;86.33
29239;BME280;16267;48.194;11.546;2022-11-15T06:54:21;95657.44;;;3.85;86.48
29239;BME280;16267;48.194;11.546;2022-11-15T06:56:47;95653.69;;;3.86;86.69
29239;BME280;16267;48.194;11.546;2022-11-15T06:59:13;95660.50;;;3.87;86.91
29239;BME280;16267;48.194;11.546;2022-11-15T07:01:39;95663.94;;;3.87;86.83
29239;BME280;16267;48.194;11.546;2022-11-15T07:04:04;95673.44;;;3.88;86.97
29239;BME280;16267;48.194;11.546;2022-11-15T07:06:30;95660.91;;;3.89;86.69
29239;BME280;16267;48.194;11.546;2022-11-15T07:08:56;95662.44;;;3.90;86.61
29239;BME280;16267;48.194;11.546;2022-11-15T07:11:21;95659.03;;;3.89;87.03
29239;BME280;16267;48.194;11.546;2022-11-15T07:13:47;95666.63;;;3.91;86.86
29239;BME280;16267;48.194;11.546;2022-11-15T07:16:13;95663.97;;;3.91;86.92
29239;BME280;16267;48.194;11.546;2022-11-15T07:18:39;95659.44;;;3.91;87.05
29239;BME280;16267;48.194;11.546;2022-11-15T07:21:08;95667.78;;;3.93;87.20
29239;BME280;16267;48.194;11.546;2022-11-15T07:23:39;95665.13;;;3.93;87.41
29239;BME280;16267;48.194;11.546;2022-11-15T07:26:06;95666.66;;;3.94;87.29
29239;BME280;16267;48.194;11.546;2022-11-15T07:28:32;95662.88;;;3.95;87.74
29239;BME280;16267;48.194;11.546;2022-11-15T07:31:05;95669.31;;;3.94;87.96
29239;BME280;16267;48.194;11.546;2022-11-15T07:33:32;95665.53;;;3.95;88.77
29239;BME280;16267;48.194;11.546;2022-11-15T07:36:06;95665.94;;;3.97;89.23
29239;BME280;16267;48.194;11.546;2022-11-15T07:38:33;95665.56;;;3.99;89.39
29239;BME280;16267;48.194;11.546;2022-11-15T07:41:03;95665.97;;;4.01;89.69
29239;BME280;16267;48.194;11.546;2022-11-15T07:43:29;95664.47;;;4.03;89.38
29239;BME280;16267;48.194;11.546;2022-11-15T07:45:58;95660.31;;;4.06;89.65
29239;BME280;16267;48.194;11.546;2022-11-15T07:48:23;95652.38;;;4.10;90.05
29239;BME280;16267;48.194;11.546;2022-11-15T07:50:49;95644.47;;;4.13;91.25
29239;BME280;16267;48.194;11.546;2022-11-15T07:53:15;95648.66;;;4.18;92.06
29239;BME280;16267;48.194;11.546;2022-11-15T07:55:41;95657.06;;;4.23;92.54
29239;BME280;16267;48.194;11.546;2022-11-15T07:58:10;95653.31;;;4.28;93.59
29239;BME280;16267;48.194;11.546;2022-11-15T08:00:37;95649.56;;;4.33;93.83
29239;BME280;16267;48.194;11.546;2022-11-15T08:03:14;95634.81;;;4.39;94.75
29239;BME280;16267;48.194;11.546;2022-11-15T08:05:41;95635.63;;;4.46;95.08
29239;BME280;16267;48.194;11.546;2022-11-15T08:08:11;95629.59;;;4.53;95.34
29239;BME280;16267;48.194;11.546;2022-11-15T08:10:37;95631.53;;;4.60;95.93
29239;BME280;16267;48.194;11.546;2022-11-15T08:13:05;95631.59;;;4.70;95.86
29239;BME280;16267;48.194;11.546;2022-11-15T08:15:32;95629.41;;;4.83;96.73
29239;BME280;16267;48.194;11.546;2022-11-15T08:18:01;95620.75;;;4.94;97.11
29239;BME280;16267;48.194;11.546;2022-11-15T08:20:29;95612.09;;;5.11;97.93
29239;BME280;16267;48.194;11.546;2022-11-15T08:22:58;95607.59;;;5.26;98.34
29239;BME280;16267;48.194;11.546;2022-11-15T08:25:25;95601.16;;;5.30;97.65
29239;BME280;16267;48.194;11.546;2022-11-15T08:27:58;95598.88;;;5.40;97.43
29239;BME280;16267;48.194;11.546;2022-11-15T08:30:24;95590.19;;;5.46;97.39
29239;BME280;16267;48.194;11.546;2022-11-15T08:32:51;95581.09;;;5.54;96.36
29239;BME280;16267;48.194;11.546;2022-11-15T08:35:19;95582.63;;;5.63;96.23
29239;BME280;16267;48.194;11.546;2022-11-15T08:37:46;95578.81;;;5.71;95.85
29239;BME280;16267;48.194;11.546;2022-11-15T08:40:13;95580.34;;;5.79;95.15
29239;BME280;16267;48.194;11.546;2022-11-15T08:42:39;95583.03;;;5.86;95.29
29239;BME280;16267;48.194;11.546;2022-11-15T08:45:06;95586.50;;;5.97;94.31
29239;BME280;16267;48.194;11.546;2022-11-15T08:47:32;95583.09;;;6.08;94.81
29239;BME280;16267;48.194;11.546;2022-11-15T08:49:58;95578.91;;;6.17;94.61
29239;BME280;16267;48.194;11.546;2022-11-15T08:52:24;95581.16;;;6.26;95.04
29239;BME280;16267;48.194;11.546;2022-11-15T08:54:50;95582.31;;;6.39;96.08
29239;BME280;16267;48.194;11.546;2022-11-15T08:57:15;95586.91;;;6.46;95.54
29239;BME280;16267;48.194;11.546;2022-11-15T08:59:41;95593.31;;;6.81;94.16
29239;BME280;16267;48.194;11.546;2022-11-15T09:02:12;95581.06;;;7.01;92.53
29239;BME280;16267;48.194;11.546;2022-11-15T09:04:41;95589.47;;;7.00;92.33
29239;BME280;16267;48.194;11.546;2022-11-15T09:07:09;95579.53;;;7.04;91.41
29239;BME280;16267;48.194;11.546;2022-11-15T09:09:35;95584.09;;;7.07;90.35
29239;BME280;16267;48.194;11.546;2022-11-15T09:12:00;95576.09;;;7.10;89.67
29239;BME280;16267;48.194;11.546;2022-11-15T09:14:26;95575.31;;;7.13;88.96
29239;BME280;16267;48.194;11.546;2022-11-15T09:16:52;95569.56;;;7.19;88.49
29239;BME280;16267;48.194;11.546;2022-11-15T09:19:18;95564.22;;;7.22;87.42
29239;BME280;16267;48.194;11.546;2022-11-15T09:21:43;95565.72;;;7.27;85.97
29239;BME280;16267;48.194;11.546;2022-11-15T09:24:09;95551.97;;;7.32;85.00
29239;BME280;16267;48.194;11.546;2022-11-15T09:26:35;95556.13;;;7.36;83.33
29239;BME280;16267;48.194;11.546;2022-11-15T09:29:00;95552.69;;;7.43;83.38
29239;BME280;16267;48.194;11.546;2022-11-15T09:31:27;95545.03;;;7.49;83.42
29239;BME280;16267;48.194;11.546;2022-11-15T09:33:55;95543.47;;;7.55;81.98
29239;BME280;16267;48.194;11.546;2022-11-15T09:36:20;95545.72;;;7.60;81.99
29239;BME280;16267;48.194;11.546;2022-11-15T09:38:46;95546.44;;;7.68;81.69
29239;BME280;16267;48.194;11.546;2022-11-15T09:44:29;95525.75;;;7.79;80.34
29239;BME280;16267;48.194;11.546;2022-11-15T09:49:54;95524.13;;;7.96;79.29
29239;BME280;16267;48.194;11.546;2022-11-15T09:52:22;95521.75;;;8.05;78.90
29239;BME280;16267;48.194;11.546;2022-11-15T09:54:51;95510.63;;;8.10;77.81
29239;BME280;16267;48.194;11.546;2022-11-15T10:03:13;95497.78;;;8.36;78.42
29239;BME280;16267;48.194;11.546;2022-11-15T10:05:47;95501.56;;;8.45;77.42
29239;BME280;16267;48.194;11.546;2022-11-15T10:11:27;95492.09;;;8.71;76.35
29239;BME280;16267;48.194;11.546;2022-11-15T10:13:57;95488.56;;;8.82;76.36
29239;BME280;16267;48.194;11.546;2022-11-15T10:20:08;95478.06;;;8.94;73.54
29239;BME280;16267;48.194;11.546;2022-11-15T10:27:40;95455.19;;;9.21;73.29
29239;BME280;16267;48.194;11.546;2022-11-15T10:30:16;95462.72;;;9.29;72.90
29239;BME280;16267;48.194;11.546;2022-11-15T10:32:45;95458.41;;;9.35;72.17
29239;BME280;16267;48.194;11.546;2022-11-15T10:35:29;95449.13;;;9.44;72.84
29239;BME280;16267;48.194;11.546;2022-11-15T10:38:07;95452.03;;;9.53;72.84
29239;BME280;16267;48.194;11.546;2022-11-15T10:40:33;95441.97;;;9.60;71.99
29239;BME280;16267;48.194;11.546;2022-11-15T10:43:18;95439.88;;;9.72;71.14
29239;BME280;16267;48.194;11.546;2022-11-15T10:45:46;95439.31;;;9.84;70.78
29239;BME280;16267;48.194;11.546;2022-11-15T10:50:45;95435.16;;;10.03;69.62
29239;BME280;16267;48.194;11.546;2022-11-15T10:53:43;95431.75;;;10.22;68.18
29239;BME280;16267;48.194;11.546;2022-11-15T10:56:14;95425.34;;;10.40;67.79
29239;BME280;16267;48.194;11.546;2022-11-15T10:58:51;95421.03;;;10.46;67.62
29239;BME280;16267;48.194;11.546;2022-11-15T11:01:28;95413.91;;;10.56;66.00
29239;BME280;16267;48.194;11.546;2022-11-15T11:04:15;95409.88;;;10.67;65.99
29239;BME280;16267;48.194;11.546;2022-11-15T11:06:54;95406.47;;;10.83;63.53
29239;BME280;16267;48.194;11.546;2022-11-15T11:09:37;95404.22;;;11.18;64.47
29239;BME280;16267;48.194;11.546;2022-11-15T11:12:09;95394.59;;;11.37;62.91
29239;BME280;16267;48.194;11.546;2022-11-15T11:14:38;95386.94;;;11.52;62.13
29239;BME280;16267;48.194;11.546;2022-11-15T11:31:55;95366.94;;;12.44;56.48
29239;BME280;16267;48.194;11.546;2022-11-15T11:35:00;95364.88;;;12.35;56.57
29239;BME280;16267;48.194;11.546;2022-11-15T11:57:48;95327.94;;;12.23;57.18
29239;BME280;16267;48.194;11.546;2022-11-15T12:00:25;95330.97;;;12.25;57.26
29239;BME280;16267;48.194;11.546;2022-11-15T12:05:59;95320.84;;;12.29;57.82
29239;BME280;16267;48.194;11.546;2022-11-15T12:09:13;95311.16;;;12.32;58.86
29239;BME280;16267;48.194;11.546;2022-11-15T12:14:35;95313.00;;;12.35;59.29
29239;BME280;16267;48.194;11.546;2022-11-15T12:17:02;95309.44;;;12.38;59.62
29239;BME280;16267;48.194;11.546;2022-11-15T12:19:29;95306.75;;;12.38;59.71
29239;BME280;16267;48.194;11.546;2022-11-15T12:30:16;95303.22;;;12.41;59.72
29239;BME280;16267;48.194;11.546;2022-11-15T12:32:57;95292.03;;;12.42;60.00
29239;BME280;16267;48.194;11.546;2022-11-15T12:35:40;95285.44;;;12.43;60.05
29239;BME280;16267;48.194;11.546;2022-11-15T12:38:10;95291.91;;;12.46;60.21
29239;BME280;16267;48.194;11.546;2022-11-15T12:43:44;95290.31;;;12.48;60.49
29239;BME280;16267;48.194;11.546;2022-11-15T12:46:58;95291.81;;;12.49;60.84
29239;BME280;16267;48.194;11.546;2022-11-15T13:02:36;95282.91;;;12.65;61.20
29239;BME280;16267;48.194;11.546;2022-11-15T13:08:01;95268.16;;;12.70;60.95
29239;BME280;16267;48.194;11.546;2022-11-15T13:13:04;95266.53;;;12.72;60.93
29239;BME280;16267;48.194;11.546;2022-11-15T13:18:34;95268.69;;;12.78;61.19
29239;BME280;16267;48.194;11.546;2022-11-15T13:21:02;95266.31;;;12.80;61.27
29239;BME280;16267;48.194;11.546;2022-11-15T13:23:54;95273.97;;;12.81;61.66
29239;BME280;16267;48.194;11.546;2022-11-15T13:26:21;95265.00;;;12.84;61.78
29239;BME280;16267;48.194;11.546;2022-11-15T13:28:51;95271.47;;;12.87;61.11
29239;BME280;16267;48.194;11.546;2022-11-15T13:33:58;95261.78;;;12.89;61.50
29239;BME280;16267;48.194;11.546;2022-11-15T13:36:34;95263.63;;;12.92;61.00
29239;BME280;16267;48.194;11.546;2022-11-15T13:39:25;95260.47;;;12.94;60.55
29239;BME280;16267;48.194;11.546;2022-11-15T13:41:52;95258.09;;;12.96;60.57
29239;BME280;16267;48.194;11.546;2022-11-15T13:44:28;95254.53;;;12.99;60.41
29239;BME280;16267;48.194;11.546;2022-11-15T13:47:12;95259.50;;;13.01;60.59
29239;BME280;16267;48.194;11.546;2022-11-15T13:49:39;95262.09;;;13.04;60.83
29239;BME280;16267;48.194;11.546;2022-11-15T13:52:08;95264.34;;;13.06;61.28
29239;BME280;16267;48.194;11.546;2022-11-15T13:54:42;95258.97;;;13.06;61.72
29239;BME280;16267;48.194;11.546;2022-11-15T13:57:21;95257.03;;;13.06;62.22
29239;BME280;16267;48.194;11.546;2022-11-15T13:59:53;95251.63;;;13.06;62.82
29239;BME280;16267;48.194;11.546;2022-11-15T14:02:39;95250.88;;;13.06;62.85
29239;BME280;16267;48.194;11.546;2022-11-15T14:05:21;95249.69;;;13.07;63.13
29239;BME280;16267;48.194;11.546;2022-11-15T14:08:21;95250.88;;;13.06;62.94
29239;BME280;16267;48.194;11.546;2022-11-15T14:10:48;95253.13;;;13.07;63.82
29239;BME280;16267;48.194;11.546;2022-11-15T14:13:31;95266.31;;;13.05;63.90
29239;BME280;16267;48.194;11.546;2022-11-15T14:16:14;95266.31;;;13.05;64.05
29239;BME280;16267;48.194;11.546;2022-11-15T14:18:58;95258.97;;;13.06;64.07
29239;BME280;16267;48.194;11.546;2022-11-15T14:21:23;95258.22;;;13.05;64.36
29239;BME280;16267;48.194;11.546;2022-11-15T14:23:49;95254.75;;;13.05;64.46
29239;BME280;16267;48.194;11.546;2022-11-15T14:26:48;95253.69;;;13.02;64.26
29239;BME280;16267;48.194;11.546;2022-11-15T14:29:28;95253.69;;;13.02;64.22
29239;BME280;16267;48.194;11.546;2022-11-15T14:32:26;95262.22;;;13.01;65.06
29239;BME280;16267;48.194;11.546;2022-11-15T14:35:01;95262.22;;;13.01;65.05
29239;BME280;16267;48.194;11.546;2022-11-15T14:37:30;95259.94;;;12.99;65.26
29239;BME280;16267;48.194;11.546;2022-11-15T14:40:05;95262.31;;;12.97;65.85
29239;BME280;16267;48.194;11.546;2022-11-15T14:42:32;95275.00;;;12.97;65.67
29239;BME280;16267;48.194;11.546;2022-11-15T14:44:58;95260.47;;;12.94;65.93
29239;BME280;16267;48.194;11.546;2022-11-15T14:47:24;95260.16;;;12.92;66.29
29239;BME280;16267;48.194;11.546;2022-11-15T14:49:49;95259.50;;;12.88;66.60
29239;BME280;16267;48.194;11.546;2022-11-15T14:52:32;95263.06;;;12.85;66.78
29239;BME280;16267;48.194;11.546;2022-11-15T14:55:08;95256.59;;;12.82;66.87
29239;BME280;16267;48.194;11.546;2022-11-15T14:57:37;95250.91;;;12.80;67.38
29239;BME280;16267;48.194;11.546;2022-11-15T15:00:04;95242.19;;;12.76;67.46
29239;BME280;16267;48.194;11.546;2022-11-15T15:02:30;95246.94;;;12.72;67.50
29239;BME280;16267;48.194;11.546;2022-11-15T15:04:56;95243.59;;;12.68;67.83
29239;BME280;16267;48.194;11.546;2022-11-15T15:07:26;95242.50;;;12.65;68.44
29239;BME280;16267;48.194;11.546;2022-11-15T15:09:52;95249.19;;;12.61;68.68
29239;BME280;16267;48.194;11.546;2022-11-15T15:12:21;95243.16;;;12.57;69.06
29239;BME280;16267;48.194;11.546;2022-11-15T15:14:49;95245.97;;;12.53;69.30
29239;BME280;16267;48.194;11.546;2022-11-15T15:17:16;95249.19;;;12.48;69.25
29239;BME280;16267;48.194;11.546;2022-11-15T15:19:42;95244.34;;;12.43;69.72
29239;BME280;16267;48.194;11.546;2022-11-15T15:22:16;95247.13;;;12.39;70.08
29239;BME280;16267;48.194;11.546;2022-11-15T15:24:43;95244.97;;;12.34;70.34
29239;BME280;16267;48.194;11.546;2022-11-15T15:27:10;95243.16;;;12.31;70.88
29239;BME280;16267;48.194;11.546;2022-11-15T15:29:36;95247.13;;;12.26;70.75
29239;BME280;16267;48.194;11.546;2022-11-15T15:32:02;95245.69;;;12.22;71.04
29239;BME280;16267;48.194;11.546;2022-11-15T15:34:28;95248.50;;;12.18;71.63
29239;BME280;16267;48.194;11.546;2022-11-15T15:37:24;95245.59;;;12.13;71.29
29239;BME280;16267;48.194;11.546;2022-11-15T15:39:56;95246.09;;;12.08;71.23
29239;BME280;16267;48.194;11.546;2022-11-15T15:42:23;95256.63;;;12.02;71.54
29239;BME280;16267;48.194;11.546;2022-11-15T15:44:50;95246.84;;;11.95;71.19
29239;BME280;16267;48.194;11.546;2022-11-15T15:47:21;95249.31;;;11.90;71.99
29239;BME280;16267;48.194;11.546;2022-11-15T15:49:48;95248.28;;;11.83;71.98
29239;BME280;16267;48.194;11.546;2022-11-15T15:52:15;95246.13;;;11.78;72.06
29239;BME280;16267;48.194;11.546;2022-11-15T15:54:41;95252.00;;;11.73;72.26
29239;BME280;16267;48.194;11.546;2022-11-15T15:57:08;95251.78;;;11.68;72.30
29239;BME280;16267;48.194;11.546;2022-11-15T15:59:36;95244.56;;;11.65;72.53
29239;BME280;16267;48.194;11.546;2022-11-15T16:02:03;95245.09;;;11.59;72.81
29239;BME280;16267;48.194;11.546;2022-11-15T16:04:28;95244.41;;;11.55;73.32
29239;BME280;16267;48.194;11.546;2022-11-15T16:06:59;95247.19;;;11.52;73.30
29239;BME280;16267;48.194;11.546;2022-11-15T16:09:25;95239.22;;;11.48;73.39
29239;BME280;16267;48.194;11.546;2022-11-15T16:12:10;95237.06;;;11.43;73.43
29239;BME280;16267;48.194;11.546;2022-11-15T16:14:35;95231.03;;;11.39;73.62
29239;BME280;16267;48.194;11.546;2022-11-15T16:17:02;95224.97;;;11.35;74.09
29239;BME280;16267;48.194;11.546;2022-11-15T16:19:28;95213.16;;;11.32;74.21
29239;BME280;16267;48.194;11.546;2022-11-15T16:21:54;95214.41;;;11.28;74.11
29239;BME280;16267;48.194;11.546;2022-11-15T16:24:20;95210.66;;;11.25;74.36
29239;BME280;16267;48.194;11.546;2022-11-15T16:26:47;95208.78;;;11.22;74.46
29239;BME280;16267;48.194;11.546;2022-11-15T16:29:14;95204.72;;;11.18;74.65
29239;BME280;16267;48.194;11.546;2022-11-15T16:31:40;95204.78;;;11.14;74.92
29239;BME280;16267;48.194;11.546;2022-11-15T16:34:05;95198.00;;;11.09;75.15
29239;BME280;16267;48.194;11.546;2022-11-15T16:36:34;95196.16;;;11.06;75.37
29239;BME280;16267;48.194;11.546;2022-11-15T16:39:00;95192.78;;;11.02;74.92
29239;BME280;16267;48.194;11.546;2022-11-15T16:41:29;95192.56;;;10.97;75.30
29239;BME280;16267;48.194;11.546;2022-11-15T16:43:56;95193.41;;;10.93;76.08
29239;BME280;16267;48.194;11.546;2022-11-15T16:46:27;95190.06;;;10.89;75.92
29239;BME280;16267;48.194;11.546;2022-11-15T16:48:54;95197.03;;;10.87;75.98
29239;BME280;16267;48.194;11.546;2022-11-15T16:51:20;95194.41;;;10.83;75.77
29239;BME280;16267;48.194;11.546;2022-11-15T16:53:46;95201.81;;;10.79;75.66
29239;BME280;16267;48.194;11.546;2022-11-15T16:56:27;95188.13;;;10.74;76.03
29239;BME280;16267;48.194;11.546;2022-11-15T16:58:58;95187.44;;;10.69;75.99
29239;BME280;16267;48.194;11.546;2022-11-15T17:01:36;95185.59;;;10.66;76.56
29239;BME280;16267;48.194;11.546;2022-11-15T17:04:13;95177.22;;;10.64;76.97
29239;BME280;16267;48.194;11.546;2022-11-15T17:06:43;95174.97;;;10.63;77.39
29239;BME280;16267;48.194;11.546;2022-11-15T17:09:16;95171.19;;;10.60;77.52
29239;BME280;16267;48.194;11.546;2022-11-15T17:11:42;95168.94;;;10.59;78.13
29239;BME280;16267;48.194;11.546;2022-11-15T17:14:09;95167.41;;;10.58;77.92
29239;BME280;16267;48.194;11.546;2022-11-15T17:16:35;95173.97;;;10.57;77.95
29239;BME280;16267;48.194;11.546;2022-11-15T17:19:03;95169.09;;;10.52;77.24
29239;BME280;16267;48.194;11.546;2022-11-15T17:21:30;95174.53;;;10.48;77.68
29239;BME280;16267;48.194;11.546;2022-11-15T17:23:58;95175.69;;;10.47;78.33
29239;BME280;16267;48.194;11.546;2022-11-15T17:26:24;95175.03;;;10.43;77.67
29239;BME280;16267;48.194;11.546;2022-11-15T17:28:54;95158.25;;;10.39;77.88
29239;BME280;16267;48.194;11.546;2022-11-15T17:31:20;95160.63;;;10.37;77.93
29239;BME280;16267;48.194;11.546;2022-11-15T17:33:46;95158.78;;;10.34;77.94
29239;BME280;16267;48.194;11.546;2022-11-15T17:36:12;95156.59;;;10.29;78.31
29239;BME280;16267;48.194;11.546;2022-11-15T17:38:40;95160.44;;;10.27;78.06
29239;BME280;16267;48.194;11.546;2022-11-15T17:41:13;95159.00;;;10.23;77.93
29239;BME280;16267;48.194;11.546;2022-11-15T17:43:40;95155.22;;;10.20;78.17
29239;BME280;16267;48.194;11.546;2022-11-15T17:46:16;95157.19;;;10.16;78.37
29239;BME280;16267;48.194;11.546;2022-11-15T17:48:44;95154.22;;;10.14;77.97
29239;BME280;16267;48.194;11.546;2022-11-15T17:51:13;95161.16;;;10.12;78.76